sensor_id;sensor_type;location;lat;lon;timestamp;temperature;humidity
11569;DHT22;5840;46.894;15.542;2023-04-01T00:01:07;8.50;99.90
11569;DHT22;5840;46.894;15.542;2023-04-01T00:03:35;8.40;99.90
11569;DHT22;5840;46.894;15.542;2023-04-01T00:06:02;8.40;99.90
11569;DHT22;5840;46.894;15.542;2023-04-01T00:08:31;8.40;99.90
11569;DHT22;5840;46.894;15.542;2023-04-01T00:10:58;8.40;99.90
11569;DHT22;5840;46.894;15.542;2023-04-01T00:13:26;8.40;99.90
11569;DHT22;5840;46.894;15.542;2023-04-01T00:15:53;8.40;99.90
11569;DHT22;5840;46.894;15.542;2023-04-01T00:18:21;8.30;99.90
11569;DHT22;5840;46.894;15.542;2023-04-01T00:20:49;8.30;99.90
11569;DHT22;5840;46.894;15.542;2023-04-01T00:23:18;8.30;99.90
11569;DHT22;5840;46.894;15.542;2023-04-01T00:25:47;8.30;99.90
11569;DHT22;5840;46.894;15.542;2023-04-01T00:28:15;8.30;99.90
11569;DHT22;5840;46.894;15.542;2023-04-01T00:30:42;8.30;99.90
11569;DHT22;5840;46.894;15.542;2023-04-01T00:33:09;8.30;99.90
11569;DHT22;5840;46.894;15.542;2023-04-01T00:35:37;8.30;99.90
11569;DHT22;5840;46.894;15.542;2023-04-01T00:38:04;8.30;99.90
11569;DHT22;5840;46.894;15.542;2023-04-01T00:40:33;8.30;99.90
11569;DHT22;5840;46.894;15.542;2023-04-01T00:43:02;8.30;99.90
11569;DHT22;5840;46.894;15.542;2023-04-01T00:45:33;8.30;99.90
11569;DHT22;5840;46.894;15.542;2023-04-01T00:48:04;8.30;99.90
11569;DHT22;5840;46.894;15.542;2023-04-01T00:50:33;8.30;99.90
11569;DHT22;5840;46.894;15.542;2023-04-01T00:53:02;8.30;99.90
11569;DHT22;5840;46.894;15.542;2023-04-01T00:55:32;8.20;99.90
11569;DHT22;5840;46.894;15.542;2023-04-01T00:58:03;8.20;99.90
11569;DHT22;5840;46.894;15.542;2023-04-01T01:00:32;8.20;99.90
11569;DHT22;5840;46.894;15.542;2023-04-01T01:02:59;8.10;99.90
11569;DHT22;5840;46.894;15.542;2023-04-01T01:05:36;8.10;99.90
11569;DHT22;5840;46.894;15.542;2023-04-01T01:08:12;8.10;99.90
11569;DHT22;5840;46.894;15.542;2023-04-01T01:10:43;8.10;99.90
11569;DHT22;5840;46.894;15.542;2023-04-01T01:13:20;8.10;99.90
11569;DHT22;5840;46.894;15.542;2023-04-01T01:15:56;8.20;99.90
11569;DHT22;5840;46.894;15.542;2023-04-01T01:18:31;8.10;99.90
11569;DHT22;5840;46.894;15.542;2023-04-01T01:21:22;8.00;99.90
11569;DHT22;5840;46.894;15.542;2023-04-01T01:24:27;8.00;99.90
11569;DHT22;5840;46.894;15.542;2023-04-01T01:27:02;7.90;99.90
11569;DHT22;5840;46.894;15.542;2023-04-01T01:29:50;7.90;99.90
11569;DHT22;5840;46.894;15.542;2023-04-01T01:35:21;7.80;99.90
11569;DHT22;5840;46.894;15.542;2023-04-01T01:37:52;7.80;99.90
11569;DHT22;5840;46.894;15.542;2023-04-01T01:40:20;7.70;99.90
11569;DHT22;5840;46.894;15.542;2023-04-01T01:42:51;7.70;99.90
11569;DHT22;5840;46.894;15.542;2023-04-01T01:45:20;7.70;99.90
11569;DHT22;5840;46.894;15.542;2023-04-01T01:47:49;7.70;99.90
11569;DHT22;5840;46.894;15.542;2023-04-01T01:50:19;7.60;99.90
11569;DHT22;5840;46.894;15.542;2023-04-01T01:52:48;7.60;99.90
11569;DHT22;5840;46.894;15.542;2023-04-01T01:55:27;7.50;99.90
11569;DHT22;5840;46.894;15.542;2023-04-01T01:57:56;7.50;99.90
11569;DHT22;5840;46.894;15.542;2023-04-01T02:00:24;7.50;99.90
11569;DHT22;5840;46.894;15.542;2023-04-01T02:02:53;7.40;99.90
11569;DHT22;5840;46.894;15.542;2023-04-01T02:05:24;7.40;99.90
11569;DHT22;5840;46.894;15.542;2023-04-01T02:07:55;7.40;99.90
11569;DHT22;5840;46.894;15.542;2023-04-01T02:10:25;7.40;99.90
11569;DHT22;5840;46.894;15.542;2023-04-01T02:12:57;7.40;99.90
11569;DHT22;5840;46.894;15.542;2023-04-01T02:15:26;7.40;99.90
11569;DHT22;5840;46.894;15.542;2023-04-01T02:17:56;7.40;99.90
11569;DHT22;5840;46.894;15.542;2023-04-01T02:20:27;7.40;99.90
11569;DHT22;5840;46.894;15.542;2023-04-01T02:22:56;7.40;99.90
11569;DHT22;5840;46.894;15.542;2023-04-01T02:25:28;7.40;99.90
11569;DHT22;5840;46.894;15.542;2023-04-01T02:27:57;7.40;99.90
11569;DHT22;5840;46.894;15.542;2023-04-01T02:30:26;7.40;99.90
11569;DHT22;5840;46.894;15.542;2023-04-01T02:32:55;7.30;99.90
11569;DHT22;5840;46.894;15.542;2023-04-01T02:35:25;7.20;99.90
11569;DHT22;5840;46.894;15.542;2023-04-01T02:37:53;7.20;99.90
11569;DHT22;5840;46.894;15.542;2023-04-01T02:40:20;7.10;99.90
11569;DHT22;5840;46.894;15.542;2023-04-01T02:42:47;7.10;99.90
11569;DHT22;5840;46.894;15.542;2023-04-01T02:45:14;7.10;99.90
11569;DHT22;5840;46.894;15.542;2023-04-01T02:47:41;7.10;99.90
11569;DHT22;5840;46.894;15.542;2023-04-01T02:50:09;7.10;99.90
11569;DHT22;5840;46.894;15.542;2023-04-01T02:52:37;7.10;99.90
11569;DHT22;5840;46.894;15.542;2023-04-01T02:55:05;7.10;99.90
11569;DHT22;5840;46.894;15.542;2023-04-01T02:57:32;7.10;99.90
11569;DHT22;5840;46.894;15.542;2023-04-01T02:59:59;7.10;99.90
11569;DHT22;5840;46.894;15.542;2023-04-01T03:02:26;7.10;99.90
11569;DHT22;5840;46.894;15.542;2023-04-01T03:04:53;7.10;99.90
11569;DHT22;5840;46.894;15.542;2023-04-01T03:07:20;7.10;99.90
11569;DHT22;5840;46.894;15.542;2023-04-01T03:09:49;7.10;99.90
11569;DHT22;5840;46.894;15.542;2023-04-01T03:12:16;7.10;99.90
11569;DHT22;5840;46.894;15.542;2023-04-01T03:14:43;7.10;99.90
11569;DHT22;5840;46.894;15.542;2023-04-01T03:17:09;7.10;99.90
11569;DHT22;5840;46.894;15.542;2023-04-01T03:19:36;7.10;99.90
11569;DHT22;5840;46.894;15.542;2023-04-01T03:22:03;7.10;99.90
11569;DHT22;5840;46.894;15.542;2023-04-01T03:24:30;7.10;99.90
11569;DHT22;5840;46.894;15.542;2023-04-01T03:26:59;7.00;99.90
11569;DHT22;5840;46.894;15.542;2023-04-01T03:29:25;7.00;99.90
11569;DHT22;5840;46.894;15.542;2023-04-01T03:31:52;7.00;99.90
11569;DHT22;5840;46.894;15.542;2023-04-01T03:34:19;7.00;99.90
11569;DHT22;5840;46.894;15.542;2023-04-01T03:36:46;7.00;99.90
11569;DHT22;5840;46.894;15.542;2023-04-01T03:39:13;6.90;99.90
11569;DHT22;5840;46.894;15.542;2023-04-01T03:41:44;7.00;99.90
11569;DHT22;5840;46.894;15.542;2023-04-01T03:44:12;7.00;99.90
11569;DHT22;5840;46.894;15.542;2023-04-01T03:46:40;7.00;99.90
11569;DHT22;5840;46.894;15.542;2023-04-01T03:49:07;7.00;99.90
11569;DHT22;5840;46.894;15.542;2023-04-01T03:51:37;7.00;99.90
11569;DHT22;5840;46.894;15.542;2023-04-01T03:54:04;7.00;99.90
11569;DHT22;5840;46.894;15.542;2023-04-01T03:56:31;7.10;99.90
11569;DHT22;5840;46.894;15.542;2023-04-01T03:58:58;7.10;99.90
11569;DHT22;5840;46.894;15.542;2023-04-01T04:01:29;7.10;99.90
11569;DHT22;5840;46.894;15.542;2023-04-01T04:03:56;7.00;99.90
11569;DHT22;5840;46.894;15.542;2023-04-01T04:06:24;7.00;99.90
11569;DHT22;5840;46.894;15.542;2023-04-01T04:08:51;7.00;99.90
11569;DHT22;5840;46.894;15.542;2023-04-01T04:11:19;7.10;99.90
11569;DHT22;5840;46.894;15.542;2023-04-01T04:13:47;7.10;99.90
11569;DHT22;5840;46.894;15.542;2023-04-01T04:16:14;7.10;99.90
11569;DHT22;5840;46.894;15.542;2023-04-01T04:18:43;7.10;99.90
11569;DHT22;5840;46.894;15.542;2023-04-01T04:21:12;7.10;99.90
11569;DHT22;5840;46.894;15.542;2023-04-01T04:23:40;7.10;99.90
11569;DHT22;5840;46.894;15.542;2023-04-01T04:26:08;7.10;99.90
11569;DHT22;5840;46.894;15.542;2023-04-01T04:28:36;7.10;99.90
11569;DHT22;5840;46.894;15.542;2023-04-01T04:31:03;7.10;99.90
11569;DHT22;5840;46.894;15.542;2023-04-01T04:33:31;7.10;99.90
11569;DHT22;5840;46.894;15.542;2023-04-01T04:36:01;7.00;99.90
11569;DHT22;5840;46.894;15.542;2023-04-01T04:38:28;7.00;99.90
11569;DHT22;5840;46.894;15.542;2023-04-01T04:40:56;7.00;99.90
11569;DHT22;5840;46.894;15.542;2023-04-01T04:43:24;7.00;99.90
11569;DHT22;5840;46.894;15.542;2023-04-01T04:45:51;7.00;99.90
11569;DHT22;5840;46.894;15.542;2023-04-01T04:48:18;7.00;99.90
11569;DHT22;5840;46.894;15.542;2023-04-01T04:50:46;7.00;99.90
11569;DHT22;5840;46.894;15.542;2023-04-01T04:53:16;7.00;99.90
11569;DHT22;5840;46.894;15.542;2023-04-01T04:55:43;7.00;99.90
11569;DHT22;5840;46.894;15.542;2023-04-01T04:58:10;7.00;99.90
11569;DHT22;5840;46.894;15.542;2023-04-01T05:00:38;7.00;99.90
11569;DHT22;5840;46.894;15.542;2023-04-01T05:03:05;7.00;99.90
11569;DHT22;5840;46.894;15.542;2023-04-01T05:05:32;7.00;99.90
11569;DHT22;5840;46.894;15.542;2023-04-01T05:07:59;7.10;99.90
11569;DHT22;5840;46.894;15.542;2023-04-01T05:10:27;7.00;99.90
11569;DHT22;5840;46.894;15.542;2023-04-01T05:12:55;7.10;99.90
11569;DHT22;5840;46.894;15.542;2023-04-01T05:15:22;7.10;99.90
11569;DHT22;5840;46.894;15.542;2023-04-01T05:17:49;7.10;99.90
11569;DHT22;5840;46.894;15.542;2023-04-01T05:20:16;7.10;99.90
11569;DHT22;5840;46.894;15.542;2023-04-01T05:22:43;7.10;99.90
11569;DHT22;5840;46.894;15.542;2023-04-01T05:25:10;7.10;99.90
11569;DHT22;5840;46.894;15.542;2023-04-01T05:27:39;7.10;99.90
11569;DHT22;5840;46.894;15.542;2023-04-01T05:30:07;7.10;99.90
11569;DHT22;5840;46.894;15.542;2023-04-01T05:32:34;7.20;99.90
11569;DHT22;5840;46.894;15.542;2023-04-01T05:35:01;7.20;99.90
11569;DHT22;5840;46.894;15.542;2023-04-01T05:37:27;7.30;99.90
11569;DHT22;5840;46.894;15.542;2023-04-01T05:39:54;7.30;99.90
11569;DHT22;5840;46.894;15.542;2023-04-01T05:42:21;7.30;99.90
11569;DHT22;5840;46.894;15.542;2023-04-01T05:44:50;7.30;99.90
11569;DHT22;5840;46.894;15.542;2023-04-01T05:47:16;7.40;99.90
11569;DHT22;5840;46.894;15.542;2023-04-01T05:49:43;7.40;99.90
11569;DHT22;5840;46.894;15.542;2023-04-01T05:52:10;7.40;99.90
11569;DHT22;5840;46.894;15.542;2023-04-01T05:54:37;7.40;99.90
11569;DHT22;5840;46.894;15.542;2023-04-01T05:57:04;7.50;99.90
11569;DHT22;5840;46.894;15.542;2023-04-01T05:59:31;7.50;99.90
11569;DHT22;5840;46.894;15.542;2023-04-01T06:02:01;7.50;99.90
11569;DHT22;5840;46.894;15.542;2023-04-01T06:04:34;7.60;99.90
11569;DHT22;5840;46.894;15.542;2023-04-01T06:07:10;7.70;99.90
11569;DHT22;5840;46.894;15.542;2023-04-01T06:09:37;7.80;99.90
11569;DHT22;5840;46.894;15.542;2023-04-01T06:12:38;7.80;99.90
11569;DHT22;5840;46.894;15.542;2023-04-01T06:15:23;7.90;99.90
11569;DHT22;5840;46.894;15.542;2023-04-01T06:18:11;8.00;99.90
11569;DHT22;5840;46.894;15.542;2023-04-01T06:20:52;8.10;99.90
11569;DHT22;5840;46.894;15.542;2023-04-01T06:23:40;8.30;99.90
11569;DHT22;5840;46.894;15.542;2023-04-01T06:26:18;8.40;99.90
11569;DHT22;5840;46.894;15.542;2023-04-01T06:32:01;8.50;99.90
11569;DHT22;5840;46.894;15.542;2023-04-01T06:34:52;8.60;99.90
11569;DHT22;5840;46.894;15.542;2023-04-01T06:37:44;8.60;99.90
11569;DHT22;5840;46.894;15.542;2023-04-01T06:40:29;8.80;99.90
11569;DHT22;5840;46.894;15.542;2023-04-01T06:43:10;8.90;99.90
11569;DHT22;5840;46.894;15.542;2023-04-01T06:45:46;9.10;99.90
11569;DHT22;5840;46.894;15.542;2023-04-01T06:51:23;9.10;99.90
11569;DHT22;5840;46.894;15.542;2023-04-01T06:53:56;9.20;99.90
11569;DHT22;5840;46.894;15.542;2023-04-01T06:56:26;9.30;99.90
11569;DHT22;5840;46.894;15.542;2023-04-01T06:58:57;9.30;99.90
11569;DHT22;5840;46.894;15.542;2023-04-01T07:01:29;9.30;99.90
11569;DHT22;5840;46.894;15.542;2023-04-01T07:04:01;9.40;99.90
11569;DHT22;5840;46.894;15.542;2023-04-01T07:06:39;9.50;99.90
11569;DHT22;5840;46.894;15.542;2023-04-01T07:09:11;9.70;99.90
11569;DHT22;5840;46.894;15.542;2023-04-01T07:11:40;9.90;99.90
11569;DHT22;5840;46.894;15.542;2023-04-01T07:14:13;10.00;99.90
11569;DHT22;5840;46.894;15.542;2023-04-01T07:16:46;10.10;99.90
11569;DHT22;5840;46.894;15.542;2023-04-01T07:19:20;10.20;99.90
11569;DHT22;5840;46.894;15.542;2023-04-01T07:21:53;10.20;99.90
11569;DHT22;5840;46.894;15.542;2023-04-01T07:24:24;10.20;99.90
11569;DHT22;5840;46.894;15.542;2023-04-01T07:26:55;10.20;99.90
11569;DHT22;5840;46.894;15.542;2023-04-01T07:29:23;10.30;99.90
11569;DHT22;5840;46.894;15.542;2023-04-01T07:32:14;10.30;99.90
11569;DHT22;5840;46.894;15.542;2023-04-01T07:34:55;10.40;99.90
11569;DHT22;5840;46.894;15.542;2023-04-01T07:37:30;10.50;99.90
11569;DHT22;5840;46.894;15.542;2023-04-01T07:40:08;10.60;99.90
11569;DHT22;5840;46.894;15.542;2023-04-01T07:42:49;10.70;99.90
11569;DHT22;5840;46.894;15.542;2023-04-01T07:45:24;10.80;99.90
11569;DHT22;5840;46.894;15.542;2023-04-01T07:48:04;10.80;99.90
11569;DHT22;5840;46.894;15.542;2023-04-01T07:50:38;11.00;99.90
11569;DHT22;5840;46.894;15.542;2023-04-01T07:53:17;11.20;99.90
11569;DHT22;5840;46.894;15.542;2023-04-01T07:55:52;11.50;99.90
11569;DHT22;5840;46.894;15.542;2023-04-01T07:58:28;11.60;99.90
11569;DHT22;5840;46.894;15.542;2023-04-01T08:00:59;11.60;99.90
11569;DHT22;5840;46.894;15.542;2023-04-01T08:03:43;11.70;99.90
11569;DHT22;5840;46.894;15.542;2023-04-01T08:06:20;11.70;99.90
11569;DHT22;5840;46.894;15.542;2023-04-01T08:08:59;11.70;99.90
11569;DHT22;5840;46.894;15.542;2023-04-01T08:11:41;11.80;99.90
11569;DHT22;5840;46.894;15.542;2023-04-01T08:14:16;11.80;99.90
11569;DHT22;5840;46.894;15.542;2023-04-01T08:16:54;11.80;99.90
11569;DHT22;5840;46.894;15.542;2023-04-01T08:19:33;12.10;99.90
11569;DHT22;5840;46.894;15.542;2023-04-01T08:22:11;12.30;99.90
11569;DHT22;5840;46.894;15.542;2023-04-01T08:24:43;12.70;99.90
11569;DHT22;5840;46.894;15.542;2023-04-01T08:27:16;12.90;99.90
11569;DHT22;5840;46.894;15.542;2023-04-01T08:29:49;13.30;99.90
11569;DHT22;5840;46.894;15.542;2023-04-01T08:32:21;13.50;99.90
11569;DHT22;5840;46.894;15.542;2023-04-01T08:34:58;13.50;99.90
11569;DHT22;5840;46.894;15.542;2023-04-01T08:37:30;13.50;99.90
11569;DHT22;5840;46.894;15.542;2023-04-01T08:40:05;13.50;99.90
11569;DHT22;5840;46.894;15.542;2023-04-01T08:42:52;13.50;99.90
11569;DHT22;5840;46.894;15.542;2023-04-01T08:45:44;13.60;99.90
11569;DHT22;5840;46.894;15.542;2023-04-01T08:48:33;13.90;99.90
11569;DHT22;5840;46.894;15.542;2023-04-01T08:54:16;14.50;99.90
11569;DHT22;5840;46.894;15.542;2023-04-01T08:56:57;14.40;99.90
11569;DHT22;5840;46.894;15.542;2023-04-01T08:59:37;14.40;99.90
11569;DHT22;5840;46.894;15.542;2023-04-01T09:05:43;14.30;99.90
11569;DHT22;5840;46.894;15.542;2023-04-01T09:08:25;14.40;99.90
11569;DHT22;5840;46.894;15.542;2023-04-01T09:11:04;14.60;99.90
11569;DHT22;5840;46.894;15.542;2023-04-01T09:13:49;14.80;99.90
11569;DHT22;5840;46.894;15.542;2023-04-01T09:16:41;14.90;99.90
11569;DHT22;5840;46.894;15.542;2023-04-01T09:19:27;14.80;99.90
11569;DHT22;5840;46.894;15.542;2023-04-01T09:22:13;14.80;99.90
11569;DHT22;5840;46.894;15.542;2023-04-01T09:25:22;14.70;99.90
11569;DHT22;5840;46.894;15.542;2023-04-01T09:27:57;14.70;99.90
11569;DHT22;5840;46.894;15.542;2023-04-01T09:30:48;14.80;99.90
11569;DHT22;5840;46.894;15.542;2023-04-01T09:36:43;14.90;99.90
11569;DHT22;5840;46.894;15.542;2023-04-01T09:39:24;15.00;99.90
11569;DHT22;5840;46.894;15.542;2023-04-01T09:42:08;15.20;99.90
11569;DHT22;5840;46.894;15.542;2023-04-01T09:44:44;15.30;99.90
11569;DHT22;5840;46.894;15.542;2023-04-01T09:47:26;15.50;99.90
11569;DHT22;5840;46.894;15.542;2023-04-01T09:50:17;15.50;99.90
11569;DHT22;5840;46.894;15.542;2023-04-01T09:52:53;15.70;99.90
11569;DHT22;5840;46.894;15.542;2023-04-01T09:58:36;15.90;98.80
11569;DHT22;5840;46.894;15.542;2023-04-01T10:01:38;16.10;99.90
11569;DHT22;5840;46.894;15.542;2023-04-01T10:07:38;16.20;99.50
11569;DHT22;5840;46.894;15.542;2023-04-01T10:10:39;16.20;98.20
11569;DHT22;5840;46.894;15.542;2023-04-01T10:13:55;16.40;99.10
11569;DHT22;5840;46.894;15.542;2023-04-01T10:22:35;16.60;93.10
11569;DHT22;5840;46.894;15.542;2023-04-01T10:34:25;16.70;90.50
11569;DHT22;5840;46.894;15.542;2023-04-01T10:36:57;16.70;91.50
11569;DHT22;5840;46.894;15.542;2023-04-01T10:39:48;16.70;91.50
11569;DHT22;5840;46.894;15.542;2023-04-01T10:42:51;16.60;90.50
11569;DHT22;5840;46.894;15.542;2023-04-01T10:45:57;16.60;92.00
11569;DHT22;5840;46.894;15.542;2023-04-01T10:49:04;16.50;90.40
11569;DHT22;5840;46.894;15.542;2023-04-01T10:54:51;16.30;92.80
11569;DHT22;5840;46.894;15.542;2023-04-01T10:57:51;16.30;91.60
11569;DHT22;5840;46.894;15.542;2023-04-01T11:00:55;16.30;91.40
11569;DHT22;5840;46.894;15.542;2023-04-01T11:03:53;16.30;90.10
11569;DHT22;5840;46.894;15.542;2023-04-01T11:09:57;16.30;90.00
11569;DHT22;5840;46.894;15.542;2023-04-01T11:13:10;16.30;92.20
11569;DHT22;5840;46.894;15.542;2023-04-01T11:16:15;16.40;91.60
11569;DHT22;5840;46.894;15.542;2023-04-01T11:19:17;16.40;88.30
11569;DHT22;5840;46.894;15.542;2023-04-01T11:22:19;16.40;90.40
11569;DHT22;5840;46.894;15.542;2023-04-01T11:25:14;16.30;90.50
11569;DHT22;5840;46.894;15.542;2023-04-01T11:27:56;16.40;89.70
11569;DHT22;5840;46.894;15.542;2023-04-01T11:30:33;16.50;89.30
11569;DHT22;5840;46.894;15.542;2023-04-01T11:33:03;16.60;90.90
11569;DHT22;5840;46.894;15.542;2023-04-01T11:35:54;16.70;91.60
11569;DHT22;5840;46.894;15.542;2023-04-01T11:38:49;16.70;88.60
11569;DHT22;5840;46.894;15.542;2023-04-01T11:41:30;16.90;91.90
11569;DHT22;5840;46.894;15.542;2023-04-01T11:44:18;17.00;90.10
11569;DHT22;5840;46.894;15.542;2023-04-01T11:47:03;16.90;90.20
11569;DHT22;5840;46.894;15.542;2023-04-01T11:49:47;16.90;87.50
11569;DHT22;5840;46.894;15.542;2023-04-01T11:52:26;16.90;90.60
11569;DHT22;5840;46.894;15.542;2023-04-01T11:58:07;16.80;82.30
11569;DHT22;5840;46.894;15.542;2023-04-01T12:03:54;16.90;87.80
11569;DHT22;5840;46.894;15.542;2023-04-01T12:06:34;17.00;90.40
11569;DHT22;5840;46.894;15.542;2023-04-01T12:09:12;17.20;87.30
11569;DHT22;5840;46.894;15.542;2023-04-01T12:11:47;17.30;88.30
11569;DHT22;5840;46.894;15.542;2023-04-01T12:14:20;17.30;84.70
11569;DHT22;5840;46.894;15.542;2023-04-01T12:16:59;17.40;90.40
11569;DHT22;5840;46.894;15.542;2023-04-01T12:19:37;17.40;90.20
11569;DHT22;5840;46.894;15.542;2023-04-01T12:22:20;17.50;87.30
11569;DHT22;5840;46.894;15.542;2023-04-01T12:24:55;17.50;87.50
11569;DHT22;5840;46.894;15.542;2023-04-01T12:27:49;17.60;89.70
11569;DHT22;5840;46.894;15.542;2023-04-01T12:30:39;17.80;89.10
11569;DHT22;5840;46.894;15.542;2023-04-01T12:33:30;17.90;89.00
11569;DHT22;5840;46.894;15.542;2023-04-01T12:36:11;18.00;89.70
11569;DHT22;5840;46.894;15.542;2023-04-01T12:38:50;18.10;88.10
11569;DHT22;5840;46.894;15.542;2023-04-01T12:41:27;18.10;85.20
11569;DHT22;5840;46.894;15.542;2023-04-01T12:47:17;17.90;85.10
11569;DHT22;5840;46.894;15.542;2023-04-01T12:49:56;17.50;82.40
11569;DHT22;5840;46.894;15.542;2023-04-01T12:52:40;17.40;78.90
11569;DHT22;5840;46.894;15.542;2023-04-01T12:55:35;17.40;80.90
11569;DHT22;5840;46.894;15.542;2023-04-01T12:58:36;17.40;82.30
11569;DHT22;5840;46.894;15.542;2023-04-01T13:01:22;17.40;84.00
11569;DHT22;5840;46.894;15.542;2023-04-01T13:04:08;17.50;86.30
11569;DHT22;5840;46.894;15.542;2023-04-01T13:06:49;17.50;82.90
11569;DHT22;5840;46.894;15.542;2023-04-01T13:09:32;17.50;84.40
11569;DHT22;5840;46.894;15.542;2023-04-01T13:12:25;17.40;82.90
11569;DHT22;5840;46.894;15.542;2023-04-01T13:18:05;17.40;84.40
11569;DHT22;5840;46.894;15.542;2023-04-01T13:20:44;17.50;84.40
11569;DHT22;5840;46.894;15.542;2023-04-01T13:23:24;17.50;81.50
11569;DHT22;5840;46.894;15.542;2023-04-01T13:26:04;17.50;81.00
11569;DHT22;5840;46.894;15.542;2023-04-01T13:28:35;17.50;80.50
11569;DHT22;5840;46.894;15.542;2023-04-01T13:31:09;17.40;76.30
11569;DHT22;5840;46.894;15.542;2023-04-01T13:33:44;17.40;82.40
11569;DHT22;5840;46.894;15.542;2023-04-01T13:36:22;17.50;75.30
11569;DHT22;5840;46.894;15.542;2023-04-01T13:39:15;17.50;78.20
11569;DHT22;5840;46.894;15.542;2023-04-01T13:42:06;17.50;78.20
11569;DHT22;5840;46.894;15.542;2023-04-01T13:44:42;17.50;81.70
11569;DHT22;5840;46.894;15.542;2023-04-01T13:47:39;17.50;78.10
11569;DHT22;5840;46.894;15.542;2023-04-01T13:50:34;17.60;75.20
11569;DHT22;5840;46.894;15.542;2023-04-01T13:53:35;17.70;79.50
11569;DHT22;5840;46.894;15.542;2023-04-01T13:56:16;17.90;76.60
11569;DHT22;5840;46.894;15.542;2023-04-01T13:59:03;18.20;77.90
11569;DHT22;5840;46.894;15.542;2023-04-01T14:01:40;18.50;76.70
11569;DHT22;5840;46.894;15.542;2023-04-01T14:04:44;18.90;81.50
11569;DHT22;5840;46.894;15.542;2023-04-01T14:07:19;19.30;79.90
11569;DHT22;5840;46.894;15.542;2023-04-01T14:09:59;19.60;79.50
11569;DHT22;5840;46.894;15.542;2023-04-01T14:12:33;19.70;75.60
11569;DHT22;5840;46.894;15.542;2023-04-01T14:15:20;19.90;74.30
11569;DHT22;5840;46.894;15.542;2023-04-01T14:17:58;19.70;69.90
11569;DHT22;5840;46.894;15.542;2023-04-01T14:20:35;19.70;73.50
11569;DHT22;5840;46.894;15.542;2023-04-01T14:23:42;19.90;73.40
11569;DHT22;5840;46.894;15.542;2023-04-01T14:29:34;20.10;75.40
11569;DHT22;5840;46.894;15.542;2023-04-01T14:32:11;19.90;75.40
11569;DHT22;5840;46.894;15.542;2023-04-01T14:34:56;19.80;72.30
11569;DHT22;5840;46.894;15.542;2023-04-01T14:37:55;19.60;72.10
11569;DHT22;5840;46.894;15.542;2023-04-01T14:40:28;19.50;70.60
11569;DHT22;5840;46.894;15.542;2023-04-01T14:46:19;19.50;71.20
11569;DHT22;5840;46.894;15.542;2023-04-01T14:48:53;19.50;71.90
11569;DHT22;5840;46.894;15.542;2023-04-01T14:51:29;19.60;72.60
11569;DHT22;5840;46.894;15.542;2023-04-01T14:54:02;19.50;71.20
11569;DHT22;5840;46.894;15.542;2023-04-01T14:56:38;19.50;73.60
11569;DHT22;5840;46.894;15.542;2023-04-01T14:59:10;19.60;72.10
11569;DHT22;5840;46.894;15.542;2023-04-01T15:01:46;19.60;67.00
11569;DHT22;5840;46.894;15.542;2023-04-01T15:04:41;19.70;66.10
11569;DHT22;5840;46.894;15.542;2023-04-01T15:10:09;19.60;67.70
11569;DHT22;5840;46.894;15.542;2023-04-01T15:12:55;19.60;66.00
11569;DHT22;5840;46.894;15.542;2023-04-01T15:15:33;19.40;64.30
11569;DHT22;5840;46.894;15.542;2023-04-01T15:18:09;19.30;69.90
11569;DHT22;5840;46.894;15.542;2023-04-01T15:21:13;19.00;67.50
11569;DHT22;5840;46.894;15.542;2023-04-01T15:24:00;18.90;67.90
11569;DHT22;5840;46.894;15.542;2023-04-01T15:26:54;18.70;68.10
11569;DHT22;5840;46.894;15.542;2023-04-01T15:29:46;18.70;69.60
11569;DHT22;5840;46.894;15.542;2023-04-01T15:32:25;18.50;66.80
11569;DHT22;5840;46.894;15.542;2023-04-01T15:34:59;18.50;66.20
11569;DHT22;5840;46.894;15.542;2023-04-01T15:37:37;18.40;68.10
11569;DHT22;5840;46.894;15.542;2023-04-01T15:40:19;18.40;67.60
11569;DHT22;5840;46.894;15.542;2023-04-01T15:42:56;18.30;67.60
11569;DHT22;5840;46.894;15.542;2023-04-01T15:45:35;18.30;65.20
11569;DHT22;5840;46.894;15.542;2023-04-01T15:48:24;18.30;65.60
11569;DHT22;5840;46.894;15.542;2023-04-01T15:51:11;18.20;69.10
11569;DHT22;5840;46.894;15.542;2023-04-01T15:54:04;18.10;67.20
11569;DHT22;5840;46.894;15.542;2023-04-01T15:56:48;18.00;68.60
11569;DHT22;5840;46.894;15.542;2023-04-01T15:59:39;18.10;69.10
11569;DHT22;5840;46.894;15.542;2023-04-01T16:02:14;17.90;67.00
11569;DHT22;5840;46.894;15.542;2023-04-01T16:04:54;17.90;67.20
11569;DHT22;5840;46.894;15.542;2023-04-01T16:07:48;17.80;66.70
11569;DHT22;5840;46.894;15.542;2023-04-01T16:10:23;17.60;67.00
11569;DHT22;5840;46.894;15.542;2023-04-01T16:13:03;17.50;67.90
11569;DHT22;5840;46.894;15.542;2023-04-01T16:15:37;17.40;66.60
11569;DHT22;5840;46.894;15.542;2023-04-01T16:18:27;17.40;66.80
11569;DHT22;5840;46.894;15.542;2023-04-01T16:21:02;17.40;70.20
11569;DHT22;5840;46.894;15.542;2023-04-01T16:23:36;17.30;68.30
11569;DHT22;5840;46.894;15.542;2023-04-01T16:26:07;17.20;71.00
11569;DHT22;5840;46.894;15.542;2023-04-01T16:28:40;17.10;70.70
11569;DHT22;5840;46.894;15.542;2023-04-01T16:31:13;17.00;69.70
11569;DHT22;5840;46.894;15.542;2023-04-01T16:33:47;16.90;69.30
11569;DHT22;5840;46.894;15.542;2023-04-01T16:36:26;16.90;70.00
11569;DHT22;5840;46.894;15.542;2023-04-01T16:39:22;16.80;70.70
11569;DHT22;5840;46.894;15.542;2023-04-01T16:42:22;16.70;69.50
11569;DHT22;5840;46.894;15.542;2023-04-01T16:44:54;16.70;69.50
11569;DHT22;5840;46.894;15.542;2023-04-01T16:47:28;16.60;69.60
11569;DHT22;5840;46.894;15.542;2023-04-01T16:50:00;16.50;69.60
11569;DHT22;5840;46.894;15.542;2023-04-01T16:52:53;16.40;70.50
11569;DHT22;5840;46.894;15.542;2023-04-01T16:55:35;16.30;70.60
11569;DHT22;5840;46.894;15.542;2023-04-01T16:58:03;16.20;70.80
11569;DHT22;5840;46.894;15.542;2023-04-01T17:00:37;16.10;71.30
11569;DHT22;5840;46.894;15.542;2023-04-01T17:03:11;16.00;71.50
11569;DHT22;5840;46.894;15.542;2023-04-01T17:05:52;15.90;71.10
11569;DHT22;5840;46.894;15.542;2023-04-01T17:08:33;15.80;71.70
11569;DHT22;5840;46.894;15.542;2023-04-01T17:11:10;15.70;71.00
11569;DHT22;5840;46.894;15.542;2023-04-01T17:13:46;15.60;71.30
11569;DHT22;5840;46.894;15.542;2023-04-01T17:16:42;15.60;71.90
11569;DHT22;5840;46.894;15.542;2023-04-01T17:19:18;15.50;72.00
11569;DHT22;5840;46.894;15.542;2023-04-01T17:21:57;15.40;72.70
11569;DHT22;5840;46.894;15.542;2023-04-01T17:24:46;15.30;73.70
11569;DHT22;5840;46.894;15.542;2023-04-01T17:27:28;15.20;73.40
11569;DHT22;5840;46.894;15.542;2023-04-01T17:30:25;15.10;75.40
11569;DHT22;5840;46.894;15.542;2023-04-01T17:36:08;14.80;75.50
11569;DHT22;5840;46.894;15.542;2023-04-01T17:38:54;14.70;75.40
11569;DHT22;5840;46.894;15.542;2023-04-01T17:41:37;14.80;74.30
11569;DHT22;5840;46.894;15.542;2023-04-01T17:44:21;14.70;74.60
11569;DHT22;5840;46.894;15.542;2023-04-01T17:47:13;14.70;74.40
11569;DHT22;5840;46.894;15.542;2023-04-01T17:49:49;14.70;74.60
11569;DHT22;5840;46.894;15.542;2023-04-01T17:52:26;14.70;75.30